Time;durP1;ratioP1;P1;durP2;ratioP2;P2;SDS_P1;SDS_P2;PMS_P1;PMS_P2;Temp;Humidity;BMP_temperature;BMP_pressure;BME280_temperature;BME280_humidity;BME280_pressure;Samples;Min_cycle;Max_cycle;Signal;HPM_P1;HPM_P2
2022/03/27 00:02:22;;;;;;;25.50;15.68;;;7.80;63.50;;;;;;5035506;28;20210;-82
2022/03/27 00:05:07;;;;;;;19.48;15.27;;;7.60;64.10;;;;;;5018649;28;20208;-82
2022/03/27 00:07:38;;;;;;;27.98;15.90;;;7.50;64.80;;;;;;5018117;28;20215;-82
2022/03/27 00:10:09;;;;;;;23.08;17.05;;;7.50;65.10;;;;;;5017116;28;20230;-82
2022/03/27 00:12:39;;;;;;;25.77;16.80;;;7.50;65.60;;;;;;5017119;28;20262;-82
2022/03/27 00:15:09;;;;;;;23.27;14.68;;;7.50;66.70;;;;;;5020804;28;20216;-82
2022/03/27 00:17:39;;;;;;;25.48;15.15;;;7.60;66.10;;;;;;5026435;28;20223;-82
2022/03/27 00:20:12;;;;;;;18.27;13.85;;;7.50;66.30;;;;;;5026534;28;20219;-82
2022/03/27 00:22:40;;;;;;;17.75;14.32;;;7.50;66.60;;;;;;5018511;28;20290;-82
2022/03/27 00:25:10;;;;;;;22.90;15.35;;;7.50;66.90;;;;;;5017545;28;20214;-82
2022/03/27 00:27:59;;;;;;;18.45;14.85;;;7.50;67.00;;;;;;5019312;28;20593;-80
2022/03/27 00:30:29;;;;;;;19.27;14.30;;;7.50;67.10;;;;;;5037155;28;20222;-80
2022/03/27 00:32:58;;;;;;;18.83;14.48;;;7.60;66.90;;;;;;5036268;28;20198;-80
2022/03/27 00:35:34;;;;;;;22.30;13.48;;;7.50;66.90;;;;;;5037061;28;20214;-80
2022/03/27 00:38:04;;;;;;;17.25;13.02;;;7.60;67.00;;;;;;5033432;28;21031;-82
2022/03/27 00:40:46;;;;;;;16.75;13.45;;;7.50;67.00;;;;;;5014991;28;20204;-82
2022/03/27 00:43:33;;;;;;;18.23;13.73;;;7.50;67.30;;;;;;5015842;28;20207;-82
2022/03/27 00:46:11;;;;;;;19.15;13.18;;;7.30;68.00;;;;;;5012982;28;20238;-82
2022/03/27 00:48:39;;;;;;;19.35;11.57;;;7.40;68.20;;;;;;5023009;28;20230;-82
2022/03/27 00:51:12;;;;;;;20.15;12.82;;;7.40;69.00;;;;;;5032807;28;20684;-83
2022/03/27 00:53:43;;;;;;;15.80;11.60;;;7.40;68.00;;;;;;5027147;28;20211;-82
2022/03/27 00:56:13;;;;;;;16.70;12.43;;;7.40;68.00;;;;;;5016384;28;20210;-82
2022/03/27 00:58:43;;;;;;;23.70;14.10;;;7.40;68.10;;;;;;5016011;28;20229;-82
2022/03/27 01:01:21;;;;;;;23.13;12.25;;;7.40;68.20;;;;;;5016275;28;20203;-82
2022/03/27 01:03:53;;;;;;;23.42;12.68;;;7.30;68.20;;;;;;5022987;28;20207;-81
2022/03/27 01:09:40;;;;;;;16.50;11.60;;;7.30;68.50;;;;;;5024339;28;20585;-82
2022/03/27 01:12:15;;;;;;;16.17;11.95;;;7.30;68.50;;;;;;5015766;28;20214;-82
2022/03/27 01:14:50;;;;;;;18.50;11.27;;;7.30;69.20;;;;;;5029281;28;20234;-82
2022/03/27 01:17:30;;;;;;;17.75;12.18;;;7.30;69.80;;;;;;5034783;28;20229;-82
2022/03/27 01:20:13;;;;;;;15.00;12.00;;;7.20;70.10;;;;;;5022014;28;20549;-82
2022/03/27 01:22:47;;;;;;;16.35;11.90;;;7.20;70.90;;;;;;5017722;28;20210;-82
2022/03/27 01:25:16;;;;;;;17.67;11.75;;;7.20;71.00;;;;;;5016561;28;20676;-82
2022/03/27 01:27:45;;;;;;;18.52;11.40;;;7.10;71.30;;;;;;5026309;28;20218;-82
2022/03/27 01:30:13;;;;;;;15.90;11.63;;;7.10;71.20;;;;;;5016156;28;20225;-82
2022/03/27 01:32:40;;;;;;;18.27;11.45;;;7.00;70.90;;;;;;5015763;28;20676;-81
2022/03/27 01:35:14;;;;;;;17.48;11.85;;;7.00;71.10;;;;;;5015792;28;20222;-82
2022/03/27 01:37:45;;;;;;;18.73;11.27;;;7.10;71.50;;;;;;5027202;28;20276;-81
2022/03/27 01:40:12;;;;;;;15.57;11.85;;;7.00;71.70;;;;;;5034486;28;20208;-82
2022/03/27 01:42:52;;;;;;;17.13;10.57;;;6.90;72.00;;;;;;5022436;28;20676;-82
2022/03/27 01:45:31;;;;;;;17.00;12.38;;;7.00;72.10;;;;;;5013604;28;20293;-82
2022/03/27 01:48:09;;;;;;;19.90;12.88;;;6.90;72.30;;;;;;5028180;28;20321;-82
2022/03/27 01:50:44;;;;;;;17.20;11.98;;;7.00;72.70;;;;;;5034229;28;20228;-82
2022/03/27 01:55:59;;;;;;;17.90;11.63;;;7.00;73.40;;;;;;5014025;28;20660;-82
2022/03/27 01:58:27;;;;;;;15.35;10.90;;;6.90;74.00;;;;;;5030893;28;20232;-82
2022/03/27 02:00:56;;;;;;;19.25;13.65;;;6.80;74.40;;;;;;5034079;28;20289;-82
2022/03/27 02:03:34;;;;;;;15.20;11.93;;;6.80;74.80;;;;;;5017139;28;20199;-81
2022/03/27 02:06:10;;;;;;;20.52;11.75;;;6.80;75.50;;;;;;5014235;28;20297;-82
2022/03/27 02:11:35;;;;;;;15.27;9.13;;;6.80;75.50;;;;;;5008819;28;20210;-80
2022/03/27 02:14:18;;;;;;;16.90;11.68;;;6.70;75.00;;;;;;5034802;28;20630;-80
2022/03/27 02:16:49;;;;;;;19.92;15.75;;;6.70;75.20;;;;;;5034074;28;20234;-80
2022/03/27 02:19:17;;;;;;;16.02;12.13;;;6.70;75.50;;;;;;5015172;28;20215;-81
2022/03/27 02:21:49;;;;;;;10.90;9.80;;;6.60;76.20;;;;;;5031163;28;20274;-81
2022/03/27 02:24:19;;;;;;;16.48;12.40;;;6.60;76.30;;;;;;5034885;28;20221;-81
2022/03/27 02:26:47;;;;;;;16.00;10.82;;;6.60;77.10;;;;;;5018098;28;20747;-80
2022/03/27 02:29:17;;;;;;;17.10;14.02;;;6.60;77.30;;;;;;5015736;28;20622;-80
2022/03/27 02:32:00;;;;;;;15.00;12.45;;;6.60;77.50;;;;;;5015462;28;20206;-81
2022/03/27 02:34:27;;;;;;;14.27;11.60;;;6.50;77.30;;;;;;5014636;28;20281;-80
2022/03/27 02:37:27;;;;;;;15.35;12.05;;;6.60;77.40;;;;;;5031391;28;20227;-80
2022/03/27 02:40:00;;;;;;;16.85;10.85;;;6.60;77.90;;;;;;5032720;28;20260;-81
2022/03/27 02:42:26;;;;;;;12.98;10.70;;;6.60;78.30;;;;;;5015064;28;20203;-80
2022/03/27 02:44:56;;;;;;;16.27;11.48;;;6.50;78.90;;;;;;5015985;28;20211;-81
2022/03/27 02:50:13;;;;;;;15.50;11.70;;;6.50;79.50;;;;;;5031603;28;20301;-80
2022/03/27 02:52:46;;;;;;;16.20;12.93;;;6.50;80.70;;;;;;5017997;28;20213;-80
2022/03/27 02:55:15;;;;;;;18.23;11.52;;;6.50;79.60;;;;;;5018634;28;20206;-81
2022/03/27 02:57:42;;;;;;;15.07;10.23;;;6.40;79.50;;;;;;5018740;28;20814;-80
2022/03/27 03:00:12;;;;;;;17.65;10.82;;;6.40;79.90;;;;;;5018478;28;20217;-80
2022/03/27 03:02:40;;;;;;;19.02;11.35;;;6.30;80.30;;;;;;5020005;28;20280;-80
2022/03/27 03:05:12;;;;;;;17.52;13.07;;;6.10;81.20;;;;;;5020433;28;20572;-80
2022/03/27 03:07:43;;;;;;;14.88;10.85;;;6.10;82.80;;;;;;5037483;28;20219;-80
2022/03/27 03:10:17;;;;;;;15.57;12.27;;;6.00;83.40;;;;;;5039634;28;20604;-80
2022/03/27 03:12:49;;;;;;;20.90;12.38;;;6.10;83.30;;;;;;5038202;28;20255;-81
2022/03/27 03:15:16;;;;;;;18.15;11.32;;;5.90;84.30;;;;;;5037624;28;20206;-81
2022/03/27 03:17:46;;;;;;;19.98;12.00;;;6.00;84.40;;;;;;5037398;28;20233;-80
2022/03/27 03:20:27;;;;;;;17.77;11.70;;;5.90;84.50;;;;;;5022984;28;20210;-81
2022/03/27 03:22:59;;;;;;;18.45;12.68;;;5.90;84.60;;;;;;5019117;28;20269;-81
2022/03/27 03:25:29;;;;;;;15.00;11.18;;;5.90;84.80;;;;;;5020414;28;20199;-81
2022/03/27 03:28:00;;;;;;;15.35;11.77;;;5.90;84.60;;;;;;5020385;28;20298;-81
2022/03/27 03:30:35;;;;;;;15.57;11.57;;;5.80;85.40;;;;;;5034282;28;20708;-80
2022/03/27 03:33:04;;;;;;;15.15;10.43;;;5.80;85.20;;;;;;5039353;28;20293;-80
2022/03/27 03:35:41;;;;;;;17.63;10.88;;;5.90;85.50;;;;;;5037496;28;20664;-80
2022/03/27 03:38:11;;;;;;;18.65;12.50;;;6.00;85.50;;;;;;5039448;28;20240;-80
2022/03/27 03:40:43;;;;;;;19.42;13.07;;;5.80;86.30;;;;;;5024195;28;20199;-80
2022/03/27 03:43:14;;;;;;;17.45;11.70;;;5.80;86.50;;;;;;5021193;28;20207;-80
2022/03/27 03:45:43;;;;;;;13.90;10.20;;;5.90;86.60;;;;;;5043455;28;20206;-80
2022/03/27 03:48:23;;;;;;;18.67;12.73;;;5.90;86.40;;;;;;5046909;28;20763;-81
2022/03/27 03:50:55;;;;;;;18.85;12.27;;;5.90;86.30;;;;;;5020371;28;20593;-80
2022/03/27 03:53:34;;;;;;;19.23;12.10;;;6.00;86.60;;;;;;5016685;28;20743;-80
2022/03/27 03:56:02;;;;;;;12.95;10.77;;;5.90;86.50;;;;;;5034332;28;20206;-81
2022/03/27 03:58:37;;;;;;;14.40;11.05;;;6.00;86.50;;;;;;5037444;28;20280;-80
2022/03/27 04:01:06;;;;;;;17.58;10.23;;;6.00;86.70;;;;;;5037966;28;20210;-80
2022/03/27 04:06:17;;;;;;;12.75;10.77;;;5.90;87.00;;;;;;5028824;28;20207;-80
2022/03/27 04:08:45;;;;;;;21.83;12.18;;;5.90;87.50;;;;;;5039795;28;20253;-80
2022/03/27 04:11:16;;;;;;;13.77;11.18;;;5.90;87.50;;;;;;5046900;28;20218;-80
2022/03/27 04:13:43;;;;;;;17.08;10.20;;;5.90;87.10;;;;;;5034483;28;20231;-80
2022/03/27 04:16:10;;;;;;;13.90;11.13;;;5.90;86.20;;;;;;5026786;28;20203;-80
2022/03/27 04:18:37;;;;;;;17.00;12.40;;;6.00;86.20;;;;;;5027259;28;20616;-80
2022/03/27 04:21:04;;;;;;;14.13;12.73;;;5.90;86.70;;;;;;5035843;28;20206;-81
2022/03/27 04:23:31;;;;;;;15.68;11.60;;;5.90;86.70;;;;;;5034805;28;20202;-81
2022/03/27 04:25:59;;;;;;;16.58;10.73;;;5.90;86.20;;;;;;5036090;28;20256;-81
2022/03/27 04:28:26;;;;;;;15.55;10.73;;;5.90;86.60;;;;;;5034007;28;20578;-81
2022/03/27 04:30:52;;;;;;;18.77;11.65;;;5.80;87.90;;;;;;5035391;28;20739;-81
2022/03/27 04:33:19;;;;;;;21.15;12.60;;;5.80;87.80;;;;;;5029760;28;20199;-80
2022/03/27 04:35:46;;;;;;;18.23;11.75;;;5.80;88.50;;;;;;5020276;28;20199;-80
2022/03/27 04:38:13;;;;;;;15.13;11.00;;;5.70;88.40;;;;;;5018633;28;20289;-79
2022/03/27 04:40:40;;;;;;;23.10;15.07;;;5.70;88.30;;;;;;5032365;28;20560;-80
2022/03/27 04:43:08;;;;;;;17.38;11.93;;;5.60;88.20;;;;;;5038244;28;20208;-80
2022/03/27 04:45:36;;;;;;;21.17;12.82;;;5.60;88.20;;;;;;5023382;28;20226;-80
2022/03/27 04:48:02;;;;;;;17.13;14.20;;;5.60;88.60;;;;;;5020439;28;20223;-81
2022/03/27 04:50:29;;;;;;;21.48;13.13;;;5.60;88.90;;;;;;5026863;28;20219;-80
2022/03/27 04:52:56;;;;;;;18.75;12.40;;;5.60;88.90;;;;;;5026951;28;20207;-80
2022/03/27 04:55:23;;;;;;;19.67;12.20;;;5.60;88.90;;;;;;5037443;28;20285;-80
2022/03/27 04:57:50;;;;;;;21.80;14.27;;;5.60;90.00;;;;;;5038627;28;20226;-80
2022/03/27 05:00:18;;;;;;;19.27;11.57;;;5.60;90.10;;;;;;5027451;28;20286;-80
2022/03/27 05:02:46;;;;;;;16.05;10.18;;;5.60;90.20;;;;;;5016973;28;20207;-81
2022/03/27 05:05:15;;;;;;;17.50;10.20;;;5.50;90.20;;;;;;5033060;28;20203;-82
2022/03/27 05:07:43;;;;;;;20.42;11.82;;;5.60;90.30;;;;;;5037117;28;20233;-81
2022/03/27 05:10:12;;;;;;;14.18;9.85;;;5.50;90.40;;;;;;5021453;28;20227;-80
2022/03/27 05:12:39;;;;;;;18.33;10.65;;;5.60;90.40;;;;;;5017897;28;20211;-81
2022/03/27 05:15:09;;;;;;;18.52;11.23;;;5.60;90.50;;;;;;5018736;28;20207;-79
2022/03/27 05:17:47;;;;;;;15.07;11.60;;;5.60;90.50;;;;;;5017452;28;20231;-80
2022/03/27 05:20:14;;;;;;;20.33;12.52;;;5.30;90.90;;;;;;5017612;28;20199;-81
2022/03/27 05:22:42;;;;;;;16.63;10.90;;;5.40;91.30;;;;;;5018182;28;20211;-80
2022/03/27 05:25:10;;;;;;;16.85;11.52;;;5.40;91.30;;;;;;5018937;28;20203;-81
2022/03/27 05:27:43;;;;;;;19.90;12.18;;;5.20;91.70;;;;;;5017949;28;20235;-80
2022/03/27 05:30:10;;;;;;;18.90;13.65;;;5.20;91.90;;;;;;5020667;28;20221;-81
2022/03/27 05:32:37;;;;;;;17.08;11.93;;;5.20;91.70;;;;;;5018031;28;20206;-80
2022/03/27 05:35:07;;;;;;;20.75;11.10;;;5.30;91.50;;;;;;5017891;28;20211;-80
2022/03/27 05:37:36;;;;;;;20.20;11.80;;;5.30;91.40;;;;;;5018183;28;20264;-81
2022/03/27 05:40:04;;;;;;;17.60;11.43;;;5.30;91.40;;;;;;5026462;28;20199;-80
2022/03/27 05:42:31;;;;;;;19.55;13.18;;;5.30;91.40;;;;;;5016894;28;20211;-81
2022/03/27 05:44:59;;;;;;;16.40;12.32;;;5.30;91.50;;;;;;5023488;28;20202;-81
2022/03/27 05:47:26;;;;;;;16.90;11.32;;;5.30;91.60;;;;;;5034654;28;20222;-81
2022/03/27 05:49:53;;;;;;;18.88;12.88;;;5.40;91.60;;;;;;5030015;28;20199;-79
2022/03/27 05:52:22;;;;;;;18.63;12.52;;;5.40;91.60;;;;;;5024297;28;20344;-79
2022/03/27 05:54:50;;;;;;;23.23;12.18;;;5.50;91.60;;;;;;5023718;28;20198;-80
2022/03/27 05:57:22;;;;;;;18.48;12.00;;;5.60;91.60;;;;;;5034430;28;20796;-80
2022/03/27 05:59:51;;;;;;;20.48;11.55;;;5.60;91.50;;;;;;5036780;28;20237;-80
2022/03/27 06:02:22;;;;;;;17.88;12.38;;;5.50;91.60;;;;;;5034471;28;20198;-80
2022/03/27 06:04:52;;;;;;;26.88;23.80;;;5.50;91.80;;;;;;5017694;28;20215;-80
2022/03/27 06:07:34;;;;;;;25.17;18.77;;;5.70;91.60;;;;;;5016502;28;20286;-80
2022/03/27 06:10:07;;;;;;;18.05;13.18;;;5.80;91.60;;;;;;5035949;28;20202;-80
2022/03/27 06:12:35;;;;;;;16.05;13.38;;;5.70;91.60;;;;;;5035283;28;20227;-80
2022/03/27 06:15:05;;;;;;;22.00;18.15;;;5.80;91.70;;;;;;5037349;28;20233;-80
2022/03/27 06:17:38;;;;;;;20.13;17.00;;;5.90;91.40;;;;;;5035150;28;20284;-81
2022/03/27 06:20:10;;;;;;;22.95;16.10;;;6.10;91.40;;;;;;5036802;28;20206;-80
2022/03/27 06:22:42;;;;;;;20.50;14.82;;;6.20;91.10;;;;;;5036210;28;20237;-80
2022/03/27 06:25:32;;;;;;;24.27;17.52;;;6.30;90.90;;;;;;5047588;28;20296;-81
2022/03/27 06:28:20;;;;;;;16.95;13.30;;;6.40;90.70;;;;;;5042529;28;20226;-80
2022/03/27 06:30:47;;;;;;;19.70;14.93;;;6.50;90.70;;;;;;5017211;28;20226;-81
2022/03/27 06:33:14;;;;;;;20.80;13.82;;;6.60;90.60;;;;;;5023751;28;20728;-81
2022/03/27 06:35:41;;;;;;;19.35;13.43;;;6.70;90.60;;;;;;5038208;28;20209;-80
2022/03/27 06:38:08;;;;;;;16.40;12.15;;;6.80;90.40;;;;;;5021873;28;20238;-81
2022/03/27 06:40:36;;;;;;;24.05;15.05;;;6.90;90.30;;;;;;5017453;28;20204;-81
2022/03/27 06:43:04;;;;;;;14.55;12.80;;;7.10;90.60;;;;;;5018068;28;20265;-80
2022/03/27 06:45:31;;;;;;;19.42;13.23;;;7.20;90.60;;;;;;5016266;28;20211;-80
2022/03/27 06:47:58;;;;;;;23.50;12.95;;;7.30;90.00;;;;;;5028222;28;20223;-80
2022/03/27 06:50:25;;;;;;;19.98;13.60;;;7.50;89.20;;;;;;5035763;28;20233;-80
2022/03/27 06:52:53;;;;;;;19.45;14.23;;;7.60;89.10;;;;;;5034912;28;20210;-80
2022/03/27 06:55:20;;;;;;;17.42;13.15;;;7.70;88.70;;;;;;5035083;28;20214;-80
2022/03/27 06:57:48;;;;;;;17.77;12.45;;;7.90;88.10;;;;;;5036776;28;20234;-80
2022/03/27 07:03:03;;;;;;;14.73;12.07;;;8.10;86.60;;;;;;5036223;28;20482;-81
2022/03/27 07:05:30;;;;;;;19.13;12.65;;;8.30;85.90;;;;;;5030765;28;20199;-81
2022/03/27 07:07:57;;;;;;;17.00;12.57;;;8.40;85.70;;;;;;5016424;28;20255;-80
2022/03/27 07:10:24;;;;;;;17.30;13.85;;;8.50;86.30;;;;;;5017695;28;20243;-80
2022/03/27 07:12:52;;;;;;;16.70;12.90;;;8.50;85.90;;;;;;5015960;28;20319;-81
2022/03/27 07:15:20;;;;;;;16.57;13.00;;;8.70;85.90;;;;;;5017045;28;20457;-80
2022/03/27 07:17:48;;;;;;;19.77;13.37;;;8.80;85.10;;;;;;5015798;28;20474;-80
2022/03/27 07:20:19;;;;;;;20.63;12.73;;;8.90;83.90;;;;;;5017950;28;20465;-81
2022/03/27 07:22:46;;;;;;;15.73;10.97;;;9.00;82.70;;;;;;5036141;28;20451;-81
2022/03/27 07:25:13;;;;;;;19.50;12.70;;;9.20;82.10;;;;;;5034313;28;20452;-80
2022/03/27 07:27:41;;;;;;;19.43;11.70;;;9.30;80.90;;;;;;5036388;28;20571;-80
2022/03/27 07:30:10;;;;;;;20.50;12.23;;;9.50;80.70;;;;;;5034139;28;20456;-81
2022/03/27 07:32:39;;;;;;;15.73;11.83;;;9.70;79.10;;;;;;5036833;28;20493;-81
2022/03/27 07:35:07;;;;;;;19.60;12.70;;;9.80;78.10;;;;;;5019661;28;20463;-81
2022/03/27 07:37:34;;;;;;;20.70;13.27;;;9.90;79.30;;;;;;5016618;28;20485;-80
2022/03/27 07:40:03;;;;;;;15.70;11.80;;;10.10;77.40;;;;;;5047784;22;20508;-81
2022/03/27 07:42:30;;;;;;;13.30;10.90;;;10.30;76.00;;;;;;5041965;28;20456;-81
2022/03/27 07:44:58;;;;;;;20.23;11.37;;;10.40;75.90;;;;;;5041435;28;20678;-82
2022/03/27 07:47:26;;;;;;;16.27;12.43;;;10.50;74.50;;;;;;5041362;28;20515;-82
2022/03/27 07:49:52;;;;;;;17.67;11.80;;;10.70;74.40;;;;;;5041936;28;20471;-82
2022/03/27 07:52:20;;;;;;;17.10;11.93;;;10.80;74.40;;;;;;5041288;28;20487;-82
2022/03/27 07:54:47;;;;;;;14.67;10.93;;;10.90;74.20;;;;;;5041766;28;20491;-81
2022/03/27 07:57:14;;;;;;;14.87;11.90;;;11.00;73.60;;;;;;5041498;28;20478;-82
2022/03/27 07:59:40;;;;;;;14.20;12.33;;;11.00;73.70;;;;;;5041368;28;20543;-82
2022/03/27 08:02:07;;;;;;;17.77;12.70;;;11.20;74.70;;;;;;5040819;28;20459;-82
2022/03/27 08:04:35;;;;;;;11.30;9.67;;;11.30;73.40;;;;;;5041599;28;20526;-82
2022/03/27 08:07:02;;;;;;;15.87;10.03;;;11.40;72.50;;;;;;5041442;28;20458;-80
2022/03/27 08:09:29;;;;;;;12.57;10.47;;;11.50;72.40;;;;;;5041643;28;20452;-83
2022/03/27 08:11:56;;;;;;;12.70;10.47;;;11.60;72.40;;;;;;5041777;28;20488;-82
2022/03/27 08:14:24;;;;;;;12.77;11.07;;;11.60;71.90;;;;;;5041924;28;20455;-83
2022/03/27 08:16:51;;;;;;;17.50;12.50;;;11.80;72.10;;;;;;5041218;28;20467;-82
2022/03/27 08:19:18;;;;;;;14.23;10.33;;;12.00;71.80;;;;;;5040786;28;20973;-82
2022/03/27 08:21:47;;;;;;;14.20;12.47;;;12.10;70.90;;;;;;5041431;28;20457;-81
2022/03/27 08:24:13;;;;;;;14.87;12.33;;;12.20;70.90;;;;;;5041358;28;20474;-82
2022/03/27 08:27:00;;;;;;;18.23;11.87;;;12.40;71.20;;;;;;5041210;28;20944;-82
2022/03/27 08:29:29;;;;;;;16.17;10.77;;;12.50;70.10;;;;;;5041104;28;20437;-83
2022/03/27 08:31:56;;;;;;;12.17;10.93;;;12.60;68.00;;;;;;5040528;28;20920;-83
2022/03/27 08:34:24;;;;;;;17.70;12.50;;;12.70;67.30;;;;;;5040767;28;20444;-83
2022/03/27 08:36:52;;;;;;;18.43;13.50;;;12.80;66.40;;;;;;5040960;28;20837;-83
2022/03/27 08:39:19;;;;;;;18.57;13.10;;;12.90;65.30;;;;;;5041667;28;20457;-83
2022/03/27 08:41:47;;;;;;;19.20;13.17;;;13.10;66.30;;;;;;5041600;28;20461;-82
2022/03/27 08:44:18;;;;;;;18.30;12.00;;;13.20;65.80;;;;;;5042341;28;20453;-83
2022/03/27 08:46:45;;;;;;;12.57;10.50;;;13.20;64.80;;;;;;5041894;28;20431;-83
2022/03/27 08:49:29;;;;;;;14.33;11.20;;;13.40;64.80;;;;;;5040394;28;20454;-83
2022/03/27 08:52:02;;;;;;;22.63;11.70;;;13.40;64.00;;;;;;5042062;28;20481;-82
2022/03/27 08:54:35;;;;;;;12.23;9.90;;;13.60;64.20;;;;;;5042149;28;20515;-82
2022/03/27 08:57:08;;;;;;;17.20;10.67;;;13.60;62.60;;;;;;5041902;28;20452;-83
2022/03/27 08:59:37;;;;;;;14.60;12.13;;;13.70;62.20;;;;;;5041201;28;21030;-84
2022/03/27 09:02:04;;;;;;;15.00;11.13;;;13.70;61.60;;;;;;5041175;28;20442;-83
2022/03/27 09:04:32;;;;;;;13.90;11.13;;;13.80;62.30;;;;;;5041337;28;20476;-83
2022/03/27 09:07:03;;;;;;;15.97;12.03;;;14.00;63.00;;;;;;5041603;28;20458;-82
2022/03/27 09:09:34;;;;;;;15.67;13.20;;;14.20;61.80;;;;;;5041171;28;20458;-83
2022/03/27 09:12:03;;;;;;;16.83;11.63;;;14.30;60.70;;;;;;5041609;28;20489;-83
2022/03/27 09:14:32;;;;;;;14.67;11.03;;;14.30;61.80;;;;;;5040791;28;20451;-82
2022/03/27 09:17:04;;;;;;;15.07;11.00;;;14.50;61.60;;;;;;5042090;28;20955;-83
2022/03/27 09:19:36;;;;;;;15.80;11.17;;;14.70;60.20;;;;;;5041102;28;20453;-83
2022/03/27 09:22:15;;;;;;;15.57;11.40;;;14.90;59.30;;;;;;5039950;28;20450;-83
2022/03/27 09:24:42;;;;;;;16.40;11.10;;;14.90;59.30;;;;;;5039895;28;20518;-83
2022/03/27 09:27:09;;;;;;;15.83;9.90;;;15.00;60.00;;;;;;5040085;28;20446;-83
2022/03/27 09:29:59;;;;;;;13.27;11.23;;;15.20;57.70;;;;;;5039935;28;20460;-83
2022/03/27 09:32:27;;;;;;;12.20;10.87;;;15.30;57.00;;;;;;5039921;28;20487;-83
2022/03/27 09:35:03;;;;;;;18.10;11.30;;;15.50;56.90;;;;;;5040167;28;20454;-83
2022/03/27 09:37:32;;;;;;;14.83;9.83;;;15.60;57.10;;;;;;5040623;28;20942;-83
2022/03/27 09:39:59;;;;;;;13.23;11.20;;;15.70;56.80;;;;;;5039974;28;20485;-84
2022/03/27 09:42:26;;;;;;;12.80;10.53;;;15.70;55.90;;;;;;5038062;28;20522;-83
2022/03/27 09:45:12;;;;;;;13.27;11.23;;;15.90;56.10;;;;;;5028571;28;21011;-83
2022/03/27 09:47:39;;;;;;;16.20;11.10;;;16.10;55.70;;;;;;5035780;28;20797;-83
2022/03/27 09:50:07;;;;;;;13.90;10.03;;;16.30;55.50;;;;;;5035510;28;20467;-83
2022/03/27 09:52:36;;;;;;;18.20;11.80;;;16.30;55.40;;;;;;5026762;28;20487;-83
2022/03/27 09:55:07;;;;;;;13.83;11.10;;;16.40;54.70;;;;;;5036016;28;20456;-83
2022/03/27 09:57:36;;;;;;;13.70;9.57;;;16.50;54.70;;;;;;5026723;28;20456;-83
2022/03/27 10:00:14;;;;;;;17.30;10.80;;;16.40;55.50;;;;;;5044209;28;20484;-85
2022/03/27 10:02:44;;;;;;;17.63;11.97;;;16.40;54.60;;;;;;5055856;28;20449;-83
2022/03/27 10:05:12;;;;;;;14.23;11.73;;;16.60;54.30;;;;;;5039340;28;20455;-83
2022/03/27 10:07:43;;;;;;;12.33;10.90;;;16.70;54.30;;;;;;5042563;28;20451;-83
2022/03/27 10:10:12;;;;;;;15.13;12.37;;;16.80;53.30;;;;;;5029270;28;20445;-83
2022/03/27 10:12:39;;;;;;;16.30;11.30;;;16.70;53.80;;;;;;5040016;28;20493;-83
2022/03/27 10:15:09;;;;;;;13.73;10.87;;;16.90;53.30;;;;;;5043979;28;20827;-83
2022/03/27 10:17:37;;;;;;;16.33;11.50;;;16.90;52.70;;;;;;5043708;28;20945;-83
2022/03/27 10:20:08;;;;;;;11.13;9.47;;;17.10;53.30;;;;;;5043030;28;20470;-83
2022/03/27 10:22:39;;;;;;;17.27;10.67;;;17.30;52.70;;;;;;5031491;28;20958;-83
2022/03/27 10:25:09;;;;;;;14.37;10.37;;;17.40;54.40;;;;;;5035733;28;20479;-83
2022/03/27 10:27:37;;;;;;;16.60;12.00;;;17.50;52.50;;;;;;5042071;28;21029;-84
2022/03/27 10:32:41;;;;;;;18.27;11.73;;;17.60;49.80;;;;;;1364889;26;20496;-84
2022/03/27 10:35:27;;;;;;;18.23;12.00;;;17.70;51.50;;;;;;5020843;28;20448;-85
2022/03/27 10:38:02;;;;;;;13.90;10.17;;;17.90;52.60;;;;;;5020342;28;20465;-83
2022/03/27 10:40:36;;;;;;;12.20;10.27;;;18.10;51.50;;;;;;5018810;28;20472;-84
2022/03/27 10:43:10;;;;;;;16.37;12.00;;;18.30;48.90;;;;;;5019291;28;20442;-83
2022/03/27 10:45:37;;;;;;;15.50;10.90;;;18.50;51.10;;;;;;5019693;28;20510;-83
2022/03/27 10:48:15;;;;;;;16.17;11.30;;;18.60;51.40;;;;;;5020573;28;20442;-84
2022/03/27 10:50:47;;;;;;;13.27;11.93;;;18.80;51.60;;;;;;5019453;28;20476;-83
2022/03/27 10:53:14;;;;;;;15.37;11.87;;;18.90;50.80;;;;;;5020017;28;20488;-84
2022/03/27 10:55:45;;;;;;;11.97;10.23;;;18.90;50.60;;;;;;5021150;28;20435;-84
2022/03/27 10:58:38;;;;;;;15.37;11.17;;;19.10;50.00;;;;;;5003127;28;20469;-84
2022/03/27 11:01:08;;;;;;;13.20;10.77;;;19.30;48.80;;;;;;5004607;28;20480;-84
2022/03/27 11:03:49;;;;;;;20.37;13.90;;;19.40;49.10;;;;;;5021285;28;20452;-83
2022/03/27 11:06:27;;;;;;;15.50;13.27;;;19.30;48.50;;;;;;5022263;28;20467;-84
2022/03/27 11:08:56;;;;;;;15.10;11.50;;;19.40;48.60;;;;;;5022336;28;20454;-84
2022/03/27 11:12:03;;;;;;;15.93;11.30;;;19.90;50.60;;;;;;5019560;28;20497;-84
2022/03/27 11:15:00;;;;;;;16.13;13.00;;;20.80;48.40;;;;;;5013521;28;20824;-84
2022/03/27 11:17:37;;;;;;;11.33;10.20;;;21.80;46.10;;;;;;5021180;28;20453;-84
2022/03/27 11:20:49;;;;;;;15.43;13.77;;;22.80;47.10;;;;;;5083885;22;20486;-81
2022/03/27 11:24:15;;;;;;;;;;;;;;;;;;;;;
2022/03/27 11:35:50;;;;;;;14.90;12.20;;;26.40;36.30;;;;;;1204727;26;20478;-83
2022/03/27 11:41:48;;;;;;;17.00;14.27;;;26.20;34.60;;;;;;4986807;28;20842;-83
2022/03/27 11:47:21;;;;;;;18.03;12.47;;;25.30;38.30;;;;;;5041355;28;20458;-83
2022/03/27 11:49:49;;;;;;;15.40;12.20;;;25.50;37.00;;;;;;5029358;28;20473;-83
2022/03/27 11:52:18;;;;;;;15.70;12.20;;;25.80;35.00;;;;;;5020828;28;20858;-83
2022/03/27 11:54:47;;;;;;;11.90;10.73;;;26.30;35.90;;;;;;5002062;28;20454;-84
2022/03/27 11:57:16;;;;;;;14.00;9.60;;;27.10;34.90;;;;;;5010612;28;20454;-84
2022/03/27 11:59:47;;;;;;;13.97;12.17;;;27.90;32.10;;;;;;5022517;28;20472;-84
2022/03/27 12:02:15;;;;;;;11.47;10.00;;;28.50;32.10;;;;;;5021378;28;20962;-84
2022/03/27 12:04:55;;;;;;;12.83;11.40;;;29.30;30.00;;;;;;5026175;28;20454;-86
2022/03/27 12:07:23;;;;;;;12.50;11.00;;;30.00;30.00;;;;;;5025793;28;20851;-86
2022/03/27 12:09:58;;;;;;;11.63;10.40;;;30.20;28.50;;;;;;5023975;28;20478;-87
2022/03/27 12:12:27;;;;;;;12.10;10.90;;;30.50;27.50;;;;;;5037412;28;20859;-85
2022/03/27 12:14:56;;;;;;;14.90;11.70;;;30.70;27.30;;;;;;5031078;28;20549;-85
2022/03/27 12:17:23;;;;;;;12.80;10.73;;;31.10;27.90;;;;;;5022646;28;20469;-86
2022/03/27 12:24:04;;;;;;;11.27;10.17;;;30.80;26.30;;;;;;4956776;28;20486;-85
2022/03/27 12:34:10;;;;;;;10.87;9.77;;;31.60;25.30;;;;;;4889860;29;20499;-87
2022/03/27 12:37:14;;;;;;;15.00;11.60;;;30.20;25.80;;;;;;4908115;28;20515;-87
2022/03/27 12:40:03;;;;;;;15.40;10.90;;;29.60;26.00;;;;;;5017075;28;20438;-86
2022/03/27 12:42:35;;;;;;;13.90;12.63;;;29.00;26.80;;;;;;5017599;28;20552;-86
2022/03/27 12:45:05;;;;;;;11.40;10.20;;;29.60;27.00;;;;;;5018841;28;20468;-87
2022/03/27 12:47:33;;;;;;;13.20;10.37;;;28.60;26.00;;;;;;5019569;28;20457;-86
2022/03/27 12:50:00;;;;;;;11.50;9.57;;;29.10;26.50;;;;;;5027781;28;20483;-84
2022/03/27 12:52:28;;;;;;;10.60;8.90;;;29.70;27.30;;;;;;5040117;28;20981;-85
2022/03/27 12:54:56;;;;;;;13.57;10.30;;;30.50;26.20;;;;;;5040550;28;20464;-85
2022/03/27 12:57:24;;;;;;;10.17;9.23;;;31.00;25.00;;;;;;5041123;28;20468;-85
2022/03/27 12:59:51;;;;;;;11.43;9.70;;;31.80;25.40;;;;;;5040758;28;20501;-85
2022/03/27 13:02:28;;;;;;;11.17;8.90;;;31.50;24.10;;;;;;5023902;28;20461;-85
2022/03/27 13:05:00;;;;;;;9.70;8.70;;;31.70;23.30;;;;;;5019620;28;20476;-84
2022/03/27 13:07:52;;;;;;;13.20;10.20;;;31.90;22.70;;;;;;5018920;28;20527;-81
2022/03/27 13:10:20;;;;;;;11.43;10.23;;;32.30;24.60;;;;;;5017211;28;20521;-82
2022/03/27 13:12:46;;;;;;;11.50;9.53;;;32.30;24.80;;;;;;5026413;28;20481;-83
2022/03/27 13:15:13;;;;;;;8.57;7.50;;;32.80;23.30;;;;;;5016668;28;20810;-82
2022/03/27 13:17:40;;;;;;;9.73;8.77;;;33.00;22.80;;;;;;5017064;28;20926;-81
2022/03/27 13:20:07;;;;;;;10.00;9.07;;;33.50;23.40;;;;;;5014452;28;20484;-82
2022/03/27 13:22:34;;;;;;;10.67;9.57;;;33.70;22.90;;;;;;5014625;28;20833;-83
2022/03/27 13:25:03;;;;;;;10.73;9.40;;;33.60;22.30;;;;;;5019928;28;20464;-81
2022/03/27 13:27:29;;;;;;;9.20;8.30;;;33.20;22.20;;;;;;5025681;28;20459;-84
2022/03/27 13:29:56;;;;;;;11.10;9.70;;;32.60;21.80;;;;;;5040432;28;20472;-84
2022/03/27 13:32:23;;;;;;;11.20;9.67;;;30.90;21.80;;;;;;5030298;28;20478;-85
2022/03/27 13:34:50;;;;;;;10.60;9.60;;;31.10;23.60;;;;;;5044804;28;20452;-83
2022/03/27 13:37:16;;;;;;;8.73;7.73;;;31.40;22.00;;;;;;5043845;28;20971;-84
2022/03/27 13:39:43;;;;;;;8.43;7.70;;;32.30;22.50;;;;;;5044598;28;20497;-84
2022/03/27 13:44:56;;;;;;;8.13;7.30;;;33.70;21.50;;;;;;5051399;28;21002;-83
2022/03/27 13:47:23;;;;;;;11.57;8.23;;;34.20;20.80;;;;;;5048156;28;20459;-84